sensor_id;sensor_type;location;lat;lon;timestamp;temperature;humidity
2907;DHT22;1463;51.070;16.998;2024-02-14T00:00:52;4.50;99.90
2907;DHT22;1463;51.070;16.998;2024-02-14T00:03:20;4.50;99.90
2907;DHT22;1463;51.070;16.998;2024-02-14T00:05:48;4.50;99.90
2907;DHT22;1463;51.070;16.998;2024-02-14T00:08:17;4.50;99.90
2907;DHT22;1463;51.070;16.998;2024-02-14T00:10:44;4.50;99.90
2907;DHT22;1463;51.070;16.998;2024-02-14T00:13:11;4.40;99.90
2907;DHT22;1463;51.070;16.998;2024-02-14T00:15:38;4.40;99.90
2907;DHT22;1463;51.070;16.998;2024-02-14T00:18:05;4.40;99.90
2907;DHT22;1463;51.070;16.998;2024-02-14T00:20:33;4.40;99.90
2907;DHT22;1463;51.070;16.998;2024-02-14T00:23:01;4.30;99.90
2907;DHT22;1463;51.070;16.998;2024-02-14T00:25:28;4.20;99.90
2907;DHT22;1463;51.070;16.998;2024-02-14T00:27:55;4.10;99.90
2907;DHT22;1463;51.070;16.998;2024-02-14T00:30:23;4.10;99.90
2907;DHT22;1463;51.070;16.998;2024-02-14T00:32:50;4.30;99.90
2907;DHT22;1463;51.070;16.998;2024-02-14T00:35:16;4.40;99.90
2907;DHT22;1463;51.070;16.998;2024-02-14T00:37:44;4.30;99.90
2907;DHT22;1463;51.070;16.998;2024-02-14T00:40:11;4.40;99.90
2907;DHT22;1463;51.070;16.998;2024-02-14T00:42:38;4.30;99.90
2907;DHT22;1463;51.070;16.998;2024-02-14T00:45:07;4.30;99.90
2907;DHT22;1463;51.070;16.998;2024-02-14T00:47:35;4.40;99.90
2907;DHT22;1463;51.070;16.998;2024-02-14T00:50:02;4.30;99.90
2907;DHT22;1463;51.070;16.998;2024-02-14T00:52:29;4.30;99.90
2907;DHT22;1463;51.070;16.998;2024-02-14T00:54:57;4.30;99.90
2907;DHT22;1463;51.070;16.998;2024-02-14T00:57:24;4.20;99.90
2907;DHT22;1463;51.070;16.998;2024-02-14T00:59:52;4.20;99.90
2907;DHT22;1463;51.070;16.998;2024-02-14T01:02:19;4.10;99.90
2907;DHT22;1463;51.070;16.998;2024-02-14T01:04:45;4.20;99.90
2907;DHT22;1463;51.070;16.998;2024-02-14T01:07:12;4.10;99.90
2907;DHT22;1463;51.070;16.998;2024-02-14T01:09:39;4.10;99.90
2907;DHT22;1463;51.070;16.998;2024-02-14T01:12:07;4.00;99.90
2907;DHT22;1463;51.070;16.998;2024-02-14T01:14:34;3.80;99.90
2907;DHT22;1463;51.070;16.998;2024-02-14T01:17:02;3.80;99.90
2907;DHT22;1463;51.070;16.998;2024-02-14T01:19:30;3.80;99.90
2907;DHT22;1463;51.070;16.998;2024-02-14T01:21:57;3.80;99.90
2907;DHT22;1463;51.070;16.998;2024-02-14T01:24:24;3.70;99.90
2907;DHT22;1463;51.070;16.998;2024-02-14T01:26:52;3.70;99.90
2907;DHT22;1463;51.070;16.998;2024-02-14T01:29:21;3.70;99.90
2907;DHT22;1463;51.070;16.998;2024-02-14T01:31:48;3.70;99.90
2907;DHT22;1463;51.070;16.998;2024-02-14T01:34:15;3.70;99.90
2907;DHT22;1463;51.070;16.998;2024-02-14T01:36:42;3.80;99.90
2907;DHT22;1463;51.070;16.998;2024-02-14T01:39:09;3.90;99.90
2907;DHT22;1463;51.070;16.998;2024-02-14T01:41:36;4.00;99.90
2907;DHT22;1463;51.070;16.998;2024-02-14T01:44:03;3.90;99.90
2907;DHT22;1463;51.070;16.998;2024-02-14T01:46:32;3.90;99.90
2907;DHT22;1463;51.070;16.998;2024-02-14T01:48:59;3.80;99.90
2907;DHT22;1463;51.070;16.998;2024-02-14T01:51:26;3.80;99.90
2907;DHT22;1463;51.070;16.998;2024-02-14T01:53:53;3.80;99.90
2907;DHT22;1463;51.070;16.998;2024-02-14T01:56:21;3.70;99.90
2907;DHT22;1463;51.070;16.998;2024-02-14T01:58:48;3.70;99.90
2907;DHT22;1463;51.070;16.998;2024-02-14T02:01:16;3.70;99.90
2907;DHT22;1463;51.070;16.998;2024-02-14T02:03:44;3.90;99.90
2907;DHT22;1463;51.070;16.998;2024-02-14T02:06:11;3.70;99.90
2907;DHT22;1463;51.070;16.998;2024-02-14T02:08:38;3.60;99.90
2907;DHT22;1463;51.070;16.998;2024-02-14T02:11:05;3.70;99.90
2907;DHT22;1463;51.070;16.998;2024-02-14T02:13:32;3.60;99.90
2907;DHT22;1463;51.070;16.998;2024-02-14T02:15:58;3.50;99.90
2907;DHT22;1463;51.070;16.998;2024-02-14T02:18:26;3.50;99.90
2907;DHT22;1463;51.070;16.998;2024-02-14T02:20:55;3.40;99.90
2907;DHT22;1463;51.070;16.998;2024-02-14T02:23:23;3.40;99.90
2907;DHT22;1463;51.070;16.998;2024-02-14T02:25:50;3.50;99.90
2907;DHT22;1463;51.070;16.998;2024-02-14T02:28:17;3.40;99.90
2907;DHT22;1463;51.070;16.998;2024-02-14T02:30:44;3.40;99.90
2907;DHT22;1463;51.070;16.998;2024-02-14T02:33:12;3.30;99.90
2907;DHT22;1463;51.070;16.998;2024-02-14T02:35:41;3.30;99.90
2907;DHT22;1463;51.070;16.998;2024-02-14T02:38:10;3.30;99.90
2907;DHT22;1463;51.070;16.998;2024-02-14T02:40:38;3.30;99.90
2907;DHT22;1463;51.070;16.998;2024-02-14T02:43:05;3.20;99.90
2907;DHT22;1463;51.070;16.998;2024-02-14T02:45:32;3.20;99.90
2907;DHT22;1463;51.070;16.998;2024-02-14T02:47:59;3.20;99.90
2907;DHT22;1463;51.070;16.998;2024-02-14T02:50:26;3.20;99.90
2907;DHT22;1463;51.070;16.998;2024-02-14T02:52:53;3.10;99.90
2907;DHT22;1463;51.070;16.998;2024-02-14T02:55:22;3.00;99.90
2907;DHT22;1463;51.070;16.998;2024-02-14T02:57:50;2.90;99.90
2907;DHT22;1463;51.070;16.998;2024-02-14T03:00:18;2.90;99.90
2907;DHT22;1463;51.070;16.998;2024-02-14T03:02:46;2.90;99.90
2907;DHT22;1463;51.070;16.998;2024-02-14T03:05:14;2.90;99.90
2907;DHT22;1463;51.070;16.998;2024-02-14T03:07:44;2.90;99.90
2907;DHT22;1463;51.070;16.998;2024-02-14T03:10:13;2.90;99.90
2907;DHT22;1463;51.070;16.998;2024-02-14T03:12:44;3.00;99.90
2907;DHT22;1463;51.070;16.998;2024-02-14T03:15:12;2.90;99.90
2907;DHT22;1463;51.070;16.998;2024-02-14T03:17:39;2.80;99.90
2907;DHT22;1463;51.070;16.998;2024-02-14T03:20:07;2.80;99.90
2907;DHT22;1463;51.070;16.998;2024-02-14T03:22:38;2.90;99.90
2907;DHT22;1463;51.070;16.998;2024-02-14T03:25:08;3.00;99.90
2907;DHT22;1463;51.070;16.998;2024-02-14T03:27:35;3.10;99.90
2907;DHT22;1463;51.070;16.998;2024-02-14T03:30:02;3.10;99.90
2907;DHT22;1463;51.070;16.998;2024-02-14T03:32:31;3.10;99.90
2907;DHT22;1463;51.070;16.998;2024-02-14T03:34:58;2.90;99.90
2907;DHT22;1463;51.070;16.998;2024-02-14T03:37:26;2.80;99.90
2907;DHT22;1463;51.070;16.998;2024-02-14T03:39:53;2.80;99.90
2907;DHT22;1463;51.070;16.998;2024-02-14T03:42:20;3.00;99.90
2907;DHT22;1463;51.070;16.998;2024-02-14T03:44:46;2.90;99.90
2907;DHT22;1463;51.070;16.998;2024-02-14T03:47:13;3.00;99.90
2907;DHT22;1463;51.070;16.998;2024-02-14T03:49:41;2.90;99.90
2907;DHT22;1463;51.070;16.998;2024-02-14T03:52:08;2.90;99.90
2907;DHT22;1463;51.070;16.998;2024-02-14T03:54:37;3.00;99.90
2907;DHT22;1463;51.070;16.998;2024-02-14T03:57:04;2.80;99.90
2907;DHT22;1463;51.070;16.998;2024-02-14T03:59:36;2.80;99.90
2907;DHT22;1463;51.070;16.998;2024-02-14T04:02:04;2.70;99.90
2907;DHT22;1463;51.070;16.998;2024-02-14T04:04:32;2.80;99.90
2907;DHT22;1463;51.070;16.998;2024-02-14T04:07:02;2.70;99.90
2907;DHT22;1463;51.070;16.998;2024-02-14T04:09:29;2.70;99.90
2907;DHT22;1463;51.070;16.998;2024-02-14T04:11:55;2.60;99.90
2907;DHT22;1463;51.070;16.998;2024-02-14T04:14:22;2.70;99.90
2907;DHT22;1463;51.070;16.998;2024-02-14T04:16:49;2.50;99.90
2907;DHT22;1463;51.070;16.998;2024-02-14T04:19:16;2.50;99.90
2907;DHT22;1463;51.070;16.998;2024-02-14T04:21:43;2.50;99.90
2907;DHT22;1463;51.070;16.998;2024-02-14T04:24:11;2.60;99.90
2907;DHT22;1463;51.070;16.998;2024-02-14T04:26:38;2.60;99.90
2907;DHT22;1463;51.070;16.998;2024-02-14T04:29:05;2.70;99.90
2907;DHT22;1463;51.070;16.998;2024-02-14T04:31:34;2.70;99.90
2907;DHT22;1463;51.070;16.998;2024-02-14T04:34:01;2.50;99.90
2907;DHT22;1463;51.070;16.998;2024-02-14T04:36:27;2.30;99.90
2907;DHT22;1463;51.070;16.998;2024-02-14T04:38:56;2.30;99.90
2907;DHT22;1463;51.070;16.998;2024-02-14T04:41:25;2.30;99.90
2907;DHT22;1463;51.070;16.998;2024-02-14T04:43:51;2.40;99.90
2907;DHT22;1463;51.070;16.998;2024-02-14T04:46:18;2.40;99.90
2907;DHT22;1463;51.070;16.998;2024-02-14T04:48:47;2.50;99.90
2907;DHT22;1463;51.070;16.998;2024-02-14T04:51:14;2.60;99.90
2907;DHT22;1463;51.070;16.998;2024-02-14T04:53:41;2.70;99.90
2907;DHT22;1463;51.070;16.998;2024-02-14T04:56:08;2.60;99.90
2907;DHT22;1463;51.070;16.998;2024-02-14T04:58:36;2.60;99.90
2907;DHT22;1463;51.070;16.998;2024-02-14T05:01:03;2.50;99.90
2907;DHT22;1463;51.070;16.998;2024-02-14T05:03:30;2.50;99.90
2907;DHT22;1463;51.070;16.998;2024-02-14T05:05:57;2.60;99.90
2907;DHT22;1463;51.070;16.998;2024-02-14T05:08:24;2.60;99.90
2907;DHT22;1463;51.070;16.998;2024-02-14T05:10:51;2.60;99.90
2907;DHT22;1463;51.070;16.998;2024-02-14T05:13:18;2.40;99.90
2907;DHT22;1463;51.070;16.998;2024-02-14T05:15:46;2.50;99.90
2907;DHT22;1463;51.070;16.998;2024-02-14T05:18:12;2.60;99.90
2907;DHT22;1463;51.070;16.998;2024-02-14T05:20:38;2.50;99.90
2907;DHT22;1463;51.070;16.998;2024-02-14T05:23:05;2.60;99.90
2907;DHT22;1463;51.070;16.998;2024-02-14T05:25:32;2.50;99.90
2907;DHT22;1463;51.070;16.998;2024-02-14T05:27:59;2.40;99.90
2907;DHT22;1463;51.070;16.998;2024-02-14T05:30:26;2.50;99.90
2907;DHT22;1463;51.070;16.998;2024-02-14T05:32:54;2.50;99.90
2907;DHT22;1463;51.070;16.998;2024-02-14T05:35:22;2.50;99.90
2907;DHT22;1463;51.070;16.998;2024-02-14T05:37:49;2.40;99.90
2907;DHT22;1463;51.070;16.998;2024-02-14T05:40:16;2.40;99.90
2907;DHT22;1463;51.070;16.998;2024-02-14T05:42:43;2.40;99.90
2907;DHT22;1463;51.070;16.998;2024-02-14T05:45:10;2.40;99.90
2907;DHT22;1463;51.070;16.998;2024-02-14T05:47:37;2.40;99.90
2907;DHT22;1463;51.070;16.998;2024-02-14T05:50:07;2.50;99.90
2907;DHT22;1463;51.070;16.998;2024-02-14T05:52:37;2.40;99.90
2907;DHT22;1463;51.070;16.998;2024-02-14T05:55:04;2.40;99.90
2907;DHT22;1463;51.070;16.998;2024-02-14T05:57:31;2.40;99.90
2907;DHT22;1463;51.070;16.998;2024-02-14T06:00:02;2.50;99.90
2907;DHT22;1463;51.070;16.998;2024-02-14T06:02:30;2.40;99.90
2907;DHT22;1463;51.070;16.998;2024-02-14T06:04:56;2.30;99.90
2907;DHT22;1463;51.070;16.998;2024-02-14T06:07:24;2.20;99.90
2907;DHT22;1463;51.070;16.998;2024-02-14T06:09:54;2.10;99.90
2907;DHT22;1463;51.070;16.998;2024-02-14T06:12:22;2.10;99.90
2907;DHT22;1463;51.070;16.998;2024-02-14T06:14:49;2.20;99.90
2907;DHT22;1463;51.070;16.998;2024-02-14T06:17:16;2.30;99.90
2907;DHT22;1463;51.070;16.998;2024-02-14T06:19:43;2.40;99.90
2907;DHT22;1463;51.070;16.998;2024-02-14T06:22:11;2.40;99.90
2907;DHT22;1463;51.070;16.998;2024-02-14T06:24:39;2.40;99.90
2907;DHT22;1463;51.070;16.998;2024-02-14T06:27:06;2.30;99.90
2907;DHT22;1463;51.070;16.998;2024-02-14T06:29:33;2.40;99.90
2907;DHT22;1463;51.070;16.998;2024-02-14T06:32:12;2.40;99.90
2907;DHT22;1463;51.070;16.998;2024-02-14T06:34:39;2.50;99.90
2907;DHT22;1463;51.070;16.998;2024-02-14T06:37:06;2.40;99.90
2907;DHT22;1463;51.070;16.998;2024-02-14T06:39:33;2.40;99.90
2907;DHT22;1463;51.070;16.998;2024-02-14T06:42:02;2.40;99.90
2907;DHT22;1463;51.070;16.998;2024-02-14T06:44:28;2.50;99.90
2907;DHT22;1463;51.070;16.998;2024-02-14T06:46:55;2.50;99.90
2907;DHT22;1463;51.070;16.998;2024-02-14T06:49:23;2.50;99.90
2907;DHT22;1463;51.070;16.998;2024-02-14T06:51:50;2.50;99.90
2907;DHT22;1463;51.070;16.998;2024-02-14T06:54:17;2.60;99.90
2907;DHT22;1463;51.070;16.998;2024-02-14T06:56:45;2.60;99.90
2907;DHT22;1463;51.070;16.998;2024-02-14T06:59:13;2.40;99.90
2907;DHT22;1463;51.070;16.998;2024-02-14T07:01:40;2.40;99.90
2907;DHT22;1463;51.070;16.998;2024-02-14T07:04:06;2.40;99.90
2907;DHT22;1463;51.070;16.998;2024-02-14T07:06:33;2.50;99.90
2907;DHT22;1463;51.070;16.998;2024-02-14T07:09:00;2.70;99.90
2907;DHT22;1463;51.070;16.998;2024-02-14T07:11:27;2.90;99.90
2907;DHT22;1463;51.070;16.998;2024-02-14T07:13:53;3.00;99.90
2907;DHT22;1463;51.070;16.998;2024-02-14T07:16:22;3.20;99.90
2907;DHT22;1463;51.070;16.998;2024-02-14T07:18:49;3.30;99.90
2907;DHT22;1463;51.070;16.998;2024-02-14T07:21:16;3.30;99.90
2907;DHT22;1463;51.070;16.998;2024-02-14T07:23:43;3.40;99.90
2907;DHT22;1463;51.070;16.998;2024-02-14T07:26:10;3.40;99.90
2907;DHT22;1463;51.070;16.998;2024-02-14T07:28:36;3.60;99.90
2907;DHT22;1463;51.070;16.998;2024-02-14T07:31:03;3.80;99.90
2907;DHT22;1463;51.070;16.998;2024-02-14T07:33:32;3.80;99.90
2907;DHT22;1463;51.070;16.998;2024-02-14T07:35:59;3.80;99.90
2907;DHT22;1463;51.070;16.998;2024-02-14T07:38:25;4.00;99.90
2907;DHT22;1463;51.070;16.998;2024-02-14T07:40:52;4.20;99.90
2907;DHT22;1463;51.070;16.998;2024-02-14T07:43:19;4.10;99.90
2907;DHT22;1463;51.070;16.998;2024-02-14T07:45:46;4.00;99.90
2907;DHT22;1463;51.070;16.998;2024-02-14T07:48:13;4.10;99.90
2907;DHT22;1463;51.070;16.998;2024-02-14T07:50:41;4.20;99.90
2907;DHT22;1463;51.070;16.998;2024-02-14T07:53:08;4.50;99.90
2907;DHT22;1463;51.070;16.998;2024-02-14T07:55:35;4.50;99.90
2907;DHT22;1463;51.070;16.998;2024-02-14T07:58:02;4.70;99.90
2907;DHT22;1463;51.070;16.998;2024-02-14T08:00:28;5.10;99.90
2907;DHT22;1463;51.070;16.998;2024-02-14T08:02:55;5.20;99.90
2907;DHT22;1463;51.070;16.998;2024-02-14T08:05:22;5.50;99.90
2907;DHT22;1463;51.070;16.998;2024-02-14T08:07:50;5.70;99.90
2907;DHT22;1463;51.070;16.998;2024-02-14T08:10:17;5.90;99.90
2907;DHT22;1463;51.070;16.998;2024-02-14T08:12:44;6.20;99.90
2907;DHT22;1463;51.070;16.998;2024-02-14T08:15:10;6.30;99.90
2907;DHT22;1463;51.070;16.998;2024-02-14T08:17:37;6.20;99.90
2907;DHT22;1463;51.070;16.998;2024-02-14T08:20:05;5.90;99.90
2907;DHT22;1463;51.070;16.998;2024-02-14T08:22:32;5.80;99.90
2907;DHT22;1463;51.070;16.998;2024-02-14T08:25:01;5.70;99.90
2907;DHT22;1463;51.070;16.998;2024-02-14T08:27:27;5.70;99.90
2907;DHT22;1463;51.070;16.998;2024-02-14T08:29:57;5.60;99.90
2907;DHT22;1463;51.070;16.998;2024-02-14T08:32:23;5.50;99.90
2907;DHT22;1463;51.070;16.998;2024-02-14T08:34:50;5.60;99.90
2907;DHT22;1463;51.070;16.998;2024-02-14T08:37:17;5.60;99.90
2907;DHT22;1463;51.070;16.998;2024-02-14T08:39:44;5.70;99.90
2907;DHT22;1463;51.070;16.998;2024-02-14T08:42:12;5.80;99.90
2907;DHT22;1463;51.070;16.998;2024-02-14T08:44:39;5.70;99.90
2907;DHT22;1463;51.070;16.998;2024-02-14T08:47:06;5.80;99.90
2907;DHT22;1463;51.070;16.998;2024-02-14T08:49:34;5.80;99.90
2907;DHT22;1463;51.070;16.998;2024-02-14T08:52:01;5.90;99.90
2907;DHT22;1463;51.070;16.998;2024-02-14T08:54:28;5.90;99.90
2907;DHT22;1463;51.070;16.998;2024-02-14T08:56:55;5.90;99.90
2907;DHT22;1463;51.070;16.998;2024-02-14T08:59:25;5.80;99.90
2907;DHT22;1463;51.070;16.998;2024-02-14T09:01:52;5.80;99.90
2907;DHT22;1463;51.070;16.998;2024-02-14T09:04:18;5.90;99.90
2907;DHT22;1463;51.070;16.998;2024-02-14T09:06:45;6.00;99.90
2907;DHT22;1463;51.070;16.998;2024-02-14T09:09:12;6.00;99.90
2907;DHT22;1463;51.070;16.998;2024-02-14T09:11:39;6.00;99.90
2907;DHT22;1463;51.070;16.998;2024-02-14T09:14:07;6.10;99.90
2907;DHT22;1463;51.070;16.998;2024-02-14T09:16:37;6.20;99.90
2907;DHT22;1463;51.070;16.998;2024-02-14T09:19:04;6.20;99.90
2907;DHT22;1463;51.070;16.998;2024-02-14T09:21:33;6.30;99.90
2907;DHT22;1463;51.070;16.998;2024-02-14T09:24:01;6.30;99.90
2907;DHT22;1463;51.070;16.998;2024-02-14T09:26:28;6.40;99.90
2907;DHT22;1463;51.070;16.998;2024-02-14T09:28:55;6.60;99.90
2907;DHT22;1463;51.070;16.998;2024-02-14T09:31:22;6.60;99.90
2907;DHT22;1463;51.070;16.998;2024-02-14T09:33:50;6.60;99.90
2907;DHT22;1463;51.070;16.998;2024-02-14T09:36:18;6.70;99.90
2907;DHT22;1463;51.070;16.998;2024-02-14T09:38:46;6.70;99.90
2907;DHT22;1463;51.070;16.998;2024-02-14T09:41:17;6.80;99.90
2907;DHT22;1463;51.070;16.998;2024-02-14T09:43:48;6.80;99.90
2907;DHT22;1463;51.070;16.998;2024-02-14T09:46:15;6.90;99.90
2907;DHT22;1463;51.070;16.998;2024-02-14T09:48:43;6.90;99.90
2907;DHT22;1463;51.070;16.998;2024-02-14T09:51:12;7.00;99.90
2907;DHT22;1463;51.070;16.998;2024-02-14T09:53:39;7.00;99.90
2907;DHT22;1463;51.070;16.998;2024-02-14T09:56:09;7.10;99.90
2907;DHT22;1463;51.070;16.998;2024-02-14T09:58:37;7.10;99.90
2907;DHT22;1463;51.070;16.998;2024-02-14T10:01:04;7.00;99.90
2907;DHT22;1463;51.070;16.998;2024-02-14T10:03:33;7.20;99.90
2907;DHT22;1463;51.070;16.998;2024-02-14T10:06:00;7.40;99.90
2907;DHT22;1463;51.070;16.998;2024-02-14T10:08:29;7.50;99.90
2907;DHT22;1463;51.070;16.998;2024-02-14T10:10:57;7.50;99.90
2907;DHT22;1463;51.070;16.998;2024-02-14T10:13:26;7.40;99.90
2907;DHT22;1463;51.070;16.998;2024-02-14T10:15:53;7.50;99.90
2907;DHT22;1463;51.070;16.998;2024-02-14T10:18:20;7.50;99.90
2907;DHT22;1463;51.070;16.998;2024-02-14T10:20:57;7.60;99.90
2907;DHT22;1463;51.070;16.998;2024-02-14T10:23:23;7.70;99.90
2907;DHT22;1463;51.070;16.998;2024-02-14T10:25:52;7.80;99.90
2907;DHT22;1463;51.070;16.998;2024-02-14T10:28:21;7.90;99.90
2907;DHT22;1463;51.070;16.998;2024-02-14T10:30:49;8.00;99.90
2907;DHT22;1463;51.070;16.998;2024-02-14T10:33:16;8.20;99.90
2907;DHT22;1463;51.070;16.998;2024-02-14T10:35:43;8.10;99.90
2907;DHT22;1463;51.070;16.998;2024-02-14T10:38:11;8.40;99.90
2907;DHT22;1463;51.070;16.998;2024-02-14T10:40:39;9.30;99.90
2907;DHT22;1463;51.070;16.998;2024-02-14T10:43:07;12.20;99.90
2907;DHT22;1463;51.070;16.998;2024-02-14T10:45:35;13.50;99.90
2907;DHT22;1463;51.070;16.998;2024-02-14T10:48:04;13.50;99.90
2907;DHT22;1463;51.070;16.998;2024-02-14T10:50:33;13.80;99.90
2907;DHT22;1463;51.070;16.998;2024-02-14T10:53:01;13.10;99.90
2907;DHT22;1463;51.070;16.998;2024-02-14T10:55:31;15.00;99.90
2907;DHT22;1463;51.070;16.998;2024-02-14T10:58:00;15.20;97.40
2907;DHT22;1463;51.070;16.998;2024-02-14T11:00:30;16.00;94.50
2907;DHT22;1463;51.070;16.998;2024-02-14T11:03:00;15.30;93.80
2907;DHT22;1463;51.070;16.998;2024-02-14T11:05:27;14.10;94.60
2907;DHT22;1463;51.070;16.998;2024-02-14T11:07:54;15.20;94.60
2907;DHT22;1463;51.070;16.998;2024-02-14T11:10:22;14.50;92.50
2907;DHT22;1463;51.070;16.998;2024-02-14T11:12:50;14.40;93.80
2907;DHT22;1463;51.070;16.998;2024-02-14T11:15:20;14.50;92.80
2907;DHT22;1463;51.070;16.998;2024-02-14T11:17:48;13.70;93.30
2907;DHT22;1463;51.070;16.998;2024-02-14T11:20:18;12.80;94.40
2907;DHT22;1463;51.070;16.998;2024-02-14T11:22:55;12.10;95.70
2907;DHT22;1463;51.070;16.998;2024-02-14T11:25:28;11.80;96.40
2907;DHT22;1463;51.070;16.998;2024-02-14T11:27:55;12.10;97.60
2907;DHT22;1463;51.070;16.998;2024-02-14T11:30:31;12.30;97.00
2907;DHT22;1463;51.070;16.998;2024-02-14T11:33:25;12.40;97.30
2907;DHT22;1463;51.070;16.998;2024-02-14T11:35:53;12.30;98.10
2907;DHT22;1463;51.070;16.998;2024-02-14T11:38:21;12.20;96.80
2907;DHT22;1463;51.070;16.998;2024-02-14T11:40:49;12.00;97.50
2907;DHT22;1463;51.070;16.998;2024-02-14T11:43:17;12.00;98.00
2907;DHT22;1463;51.070;16.998;2024-02-14T11:45:44;12.00;97.40
2907;DHT22;1463;51.070;16.998;2024-02-14T11:48:15;11.80;97.50
2907;DHT22;1463;51.070;16.998;2024-02-14T11:50:44;11.70;98.00
2907;DHT22;1463;51.070;16.998;2024-02-14T11:53:12;11.60;98.30
2907;DHT22;1463;51.070;16.998;2024-02-14T11:55:42;11.40;97.90
2907;DHT22;1463;51.070;16.998;2024-02-14T11:58:09;11.30;97.30
2907;DHT22;1463;51.070;16.998;2024-02-14T12:00:37;11.20;97.90
2907;DHT22;1463;51.070;16.998;2024-02-14T12:03:07;11.00;97.50
2907;DHT22;1463;51.070;16.998;2024-02-14T12:05:35;10.90;97.00
2907;DHT22;1463;51.070;16.998;2024-02-14T12:08:04;10.80;96.10
2907;DHT22;1463;51.070;16.998;2024-02-14T12:10:33;10.70;96.40
2907;DHT22;1463;51.070;16.998;2024-02-14T12:13:06;10.60;96.50
2907;DHT22;1463;51.070;16.998;2024-02-14T12:15:37;10.60;97.20
2907;DHT22;1463;51.070;16.998;2024-02-14T12:18:05;10.40;98.70
2907;DHT22;1463;51.070;16.998;2024-02-14T12:20:31;10.30;99.90
2907;DHT22;1463;51.070;16.998;2024-02-14T12:22:59;10.30;99.90
2907;DHT22;1463;51.070;16.998;2024-02-14T12:25:27;10.30;99.90
2907;DHT22;1463;51.070;16.998;2024-02-14T12:27:56;10.40;99.90
2907;DHT22;1463;51.070;16.998;2024-02-14T12:30:23;10.40;99.90
2907;DHT22;1463;51.070;16.998;2024-02-14T12:32:58;10.40;99.90
2907;DHT22;1463;51.070;16.998;2024-02-14T12:35:26;10.50;99.90
2907;DHT22;1463;51.070;16.998;2024-02-14T12:37:53;10.40;99.90
2907;DHT22;1463;51.070;16.998;2024-02-14T12:40:20;10.50;99.90
2907;DHT22;1463;51.070;16.998;2024-02-14T12:42:48;10.60;99.90
2907;DHT22;1463;51.070;16.998;2024-02-14T12:45:15;10.60;99.90
2907;DHT22;1463;51.070;16.998;2024-02-14T12:47:42;10.50;99.90
2907;DHT22;1463;51.070;16.998;2024-02-14T12:50:09;10.40;99.90
2907;DHT22;1463;51.070;16.998;2024-02-14T12:52:35;10.50;99.90
2907;DHT22;1463;51.070;16.998;2024-02-14T12:55:03;10.50;99.90
2907;DHT22;1463;51.070;16.998;2024-02-14T12:57:30;10.50;99.90
2907;DHT22;1463;51.070;16.998;2024-02-14T12:59:58;10.70;99.90
2907;DHT22;1463;51.070;16.998;2024-02-14T13:02:25;10.70;99.90
2907;DHT22;1463;51.070;16.998;2024-02-14T13:04:54;10.60;99.90
2907;DHT22;1463;51.070;16.998;2024-02-14T13:07:20;10.70;99.90
2907;DHT22;1463;51.070;16.998;2024-02-14T13:09:47;10.70;99.90
2907;DHT22;1463;51.070;16.998;2024-02-14T13:12:14;10.70;99.90
2907;DHT22;1463;51.070;16.998;2024-02-14T13:14:41;10.70;99.90
2907;DHT22;1463;51.070;16.998;2024-02-14T13:17:11;10.70;99.90
2907;DHT22;1463;51.070;16.998;2024-02-14T13:19:39;10.60;99.90
2907;DHT22;1463;51.070;16.998;2024-02-14T13:22:08;10.60;99.90
2907;DHT22;1463;51.070;16.998;2024-02-14T13:24:35;10.50;99.90
2907;DHT22;1463;51.070;16.998;2024-02-14T13:27:02;10.60;99.90
2907;DHT22;1463;51.070;16.998;2024-02-14T13:29:29;10.60;99.90
2907;DHT22;1463;51.070;16.998;2024-02-14T13:31:55;10.60;99.90
2907;DHT22;1463;51.070;16.998;2024-02-14T13:34:24;10.60;99.90
2907;DHT22;1463;51.070;16.998;2024-02-14T13:36:50;10.50;99.90
2907;DHT22;1463;51.070;16.998;2024-02-14T13:39:17;10.50;99.90
2907;DHT22;1463;51.070;16.998;2024-02-14T13:41:44;10.50;99.90
2907;DHT22;1463;51.070;16.998;2024-02-14T13:44:11;10.50;99.90
2907;DHT22;1463;51.070;16.998;2024-02-14T13:46:38;10.50;99.90
2907;DHT22;1463;51.070;16.998;2024-02-14T13:49:09;10.60;99.90
2907;DHT22;1463;51.070;16.998;2024-02-14T13:51:39;10.50;99.90
2907;DHT22;1463;51.070;16.998;2024-02-14T13:54:05;10.50;99.90
2907;DHT22;1463;51.070;16.998;2024-02-14T13:56:34;10.50;99.90
2907;DHT22;1463;51.070;16.998;2024-02-14T13:59:02;10.50;99.90
2907;DHT22;1463;51.070;16.998;2024-02-14T14:01:28;10.50;99.90
2907;DHT22;1463;51.070;16.998;2024-02-14T14:03:55;10.40;99.90
2907;DHT22;1463;51.070;16.998;2024-02-14T14:06:24;10.40;99.90
2907;DHT22;1463;51.070;16.998;2024-02-14T14:08:52;10.30;99.90
2907;DHT22;1463;51.070;16.998;2024-02-14T14:11:19;10.30;99.90
2907;DHT22;1463;51.070;16.998;2024-02-14T14:13:46;10.20;99.90
2907;DHT22;1463;51.070;16.998;2024-02-14T14:16:14;10.10;99.90
2907;DHT22;1463;51.070;16.998;2024-02-14T14:18:41;10.30;99.90
2907;DHT22;1463;51.070;16.998;2024-02-14T14:21:07;10.30;99.90
2907;DHT22;1463;51.070;16.998;2024-02-14T14:23:34;10.30;99.90
2907;DHT22;1463;51.070;16.998;2024-02-14T14:26:02;10.30;99.90
2907;DHT22;1463;51.070;16.998;2024-02-14T14:28:29;10.30;99.90
2907;DHT22;1463;51.070;16.998;2024-02-14T14:30:57;10.30;99.90
2907;DHT22;1463;51.070;16.998;2024-02-14T14:33:26;10.30;99.90
2907;DHT22;1463;51.070;16.998;2024-02-14T14:35:52;10.30;99.90
2907;DHT22;1463;51.070;16.998;2024-02-14T14:38:20;10.20;99.90
2907;DHT22;1463;51.070;16.998;2024-02-14T14:40:47;10.20;99.90
2907;DHT22;1463;51.070;16.998;2024-02-14T14:43:15;10.20;99.90
2907;DHT22;1463;51.070;16.998;2024-02-14T14:45:44;10.20;99.90
2907;DHT22;1463;51.070;16.998;2024-02-14T14:48:11;10.20;99.90
2907;DHT22;1463;51.070;16.998;2024-02-14T14:50:38;10.20;99.90
2907;DHT22;1463;51.070;16.998;2024-02-14T14:53:05;10.10;99.90
2907;DHT22;1463;51.070;16.998;2024-02-14T14:55:50;10.10;99.90
2907;DHT22;1463;51.070;16.998;2024-02-14T14:58:18;10.10;99.90
2907;DHT22;1463;51.070;16.998;2024-02-14T15:00:47;10.20;99.90
2907;DHT22;1463;51.070;16.998;2024-02-14T15:03:14;10.20;99.90
2907;DHT22;1463;51.070;16.998;2024-02-14T15:05:41;10.10;99.90
2907;DHT22;1463;51.070;16.998;2024-02-14T15:08:08;10.20;99.90
2907;DHT22;1463;51.070;16.998;2024-02-14T15:10:35;10.20;99.90
2907;DHT22;1463;51.070;16.998;2024-02-14T15:13:04;10.20;99.90
2907;DHT22;1463;51.070;16.998;2024-02-14T15:15:32;10.20;99.90
2907;DHT22;1463;51.070;16.998;2024-02-14T15:17:59;10.20;99.90
2907;DHT22;1463;51.070;16.998;2024-02-14T15:20:26;10.20;99.90
2907;DHT22;1463;51.070;16.998;2024-02-14T15:22:53;10.20;99.90
2907;DHT22;1463;51.070;16.998;2024-02-14T15:25:20;10.20;99.90
2907;DHT22;1463;51.070;16.998;2024-02-14T15:27:47;10.20;99.90
2907;DHT22;1463;51.070;16.998;2024-02-14T15:30:20;10.20;99.90
2907;DHT22;1463;51.070;16.998;2024-02-14T15:33:06;10.20;99.90
2907;DHT22;1463;51.070;16.998;2024-02-14T15:35:48;10.20;99.90
2907;DHT22;1463;51.070;16.998;2024-02-14T15:38:15;10.10;99.90
2907;DHT22;1463;51.070;16.998;2024-02-14T15:40:44;10.10;99.90
2907;DHT22;1463;51.070;16.998;2024-02-14T15:43:11;10.10;99.90
2907;DHT22;1463;51.070;16.998;2024-02-14T15:45:38;10.10;99.90
2907;DHT22;1463;51.070;16.998;2024-02-14T15:48:07;10.00;99.90
2907;DHT22;1463;51.070;16.998;2024-02-14T15:50:40;10.00;99.90
2907;DHT22;1463;51.070;16.998;2024-02-14T15:53:10;10.10;99.90
2907;DHT22;1463;51.070;16.998;2024-02-14T15:55:37;10.00;99.90
2907;DHT22;1463;51.070;16.998;2024-02-14T15:58:05;10.00;99.90
2907;DHT22;1463;51.070;16.998;2024-02-14T16:00:34;10.00;99.90